Time;durP1;ratioP1;P1;durP2;ratioP2;P2;SDS_P1;SDS_P2;PMS_P1;PMS_P2;Temp;Humidity;BMP_temperature;BMP_pressure;BME280_temperature;BME280_humidity;BME280_pressure;Samples;Min_cycle;Max_cycle;Signal;HPM_P1;HPM_P2
2023/12/14 00:01:57;;;;;;;;;;;;;;;;;;5038001;28;20428;-82
2023/12/14 00:04:22;;;;;;;;;;;;;;;;;;5040551;28;19959;-82
2023/12/14 00:06:47;;;;;;;;;;;;;;;;;;5039108;28;19917;-81
2023/12/14 00:09:12;;;;;;;;;;;;;;;;;;5042531;28;19927;-81
2023/12/14 00:11:37;;;;;;;;;;;;;;;;;;5033882;28;19917;-81
2023/12/14 00:14:02;;;;;;;;;;;;;;;;;;5032185;28;19925;-82
2023/12/14 00:16:27;;;;;;;;;;;;;;;;;;5037761;28;19921;-82
2023/12/14 00:18:53;;;;;;;;;;;;;;;;;;5034179;28;19928;-81
2023/12/14 00:21:18;;;;;;;;;;;;;;;;;;5034035;28;19931;-83
2023/12/14 00:23:43;;;;;;;;;;;;;;;;;;5039980;28;19927;-82
2023/12/14 00:26:08;;;;;;;;;;;;;;;;;;5030806;28;19924;-80
2023/12/14 00:28:33;;;;;;;;;;;;;;;;;;5033997;28;19933;-83
2023/12/14 00:30:59;;;;;;;;;;;;;;;;;;5041902;28;19921;-82
2023/12/14 00:33:24;;;;;;;;;;;;;;;;;;5035969;28;19975;-82
2023/12/14 00:35:49;;;;;;;;;;;;;;;;;;5036919;28;20071;-81
2023/12/14 00:38:14;;;;;;;;;;;;;;;;;;5041983;28;19921;-82
2023/12/14 00:40:39;;;;;;;;;;;;;;;;;;5035033;28;19917;-81
2023/12/14 00:43:04;;;;;;;;;;;;;;;;;;5040076;28;19921;-82
2023/12/14 00:45:29;;;;;;;;;;;;;;;;;;5039454;28;19995;-81
2023/12/14 00:47:54;;;;;;;;;;;;;;;;;;5032822;28;19963;-82
2023/12/14 00:50:20;;;;;;;;;;;;;;;;;;5024853;28;20012;-81
2023/12/14 00:52:45;;;;;;;;;;;;;;;;;;5030639;28;20041;-81
2023/12/14 00:55:10;;;;;;;;;;;;;;;;;;5031604;28;19917;-81
2023/12/14 00:57:35;;;;;;;;;;;;;;;;;;5029569;28;19925;-81
2023/12/14 01:00:00;;;;;;;;;;;;;;;;;;5031454;28;19917;-81
2023/12/14 01:02:25;;;;;;;;;;;;;;;;;;5030748;28;19924;-81
2023/12/14 01:04:50;;;;;;;;;;;;;;;;;;5030952;28;19921;-82
2023/12/14 01:07:15;;;;;;;;;;;;;;;;;;5031274;28;19917;-82
2023/12/14 01:09:40;;;;;;;;;;;;;;;;;;5031668;28;19917;-82
2023/12/14 01:12:05;;;;;;;;;;;;;;;;;;5032756;28;19928;-82
2023/12/14 01:14:31;;;;;;;;;;;;;;;;;;5031285;28;20004;-81
2023/12/14 01:16:56;;;;;;;;;;;;;;;;;;5029471;28;19928;-82
2023/12/14 01:19:21;;;;;;;;;;;;;;;;;;5031149;28;20342;-82
2023/12/14 01:21:46;;;;;;;;;;;;;;;;;;5030942;28;19971;-82
2023/12/14 01:24:11;;;;;;;;;;;;;;;;;;5030963;28;19928;-82
2023/12/14 01:26:36;;;;;;;;;;;;;;;;;;5029261;28;19921;-81
2023/12/14 01:29:01;;;;;;;;;;;;;;;;;;5031122;28;19917;-82
2023/12/14 01:31:26;;;;;;;;;;;;;;;;;;5031030;28;20423;-82
2023/12/14 01:33:51;;;;;;;;;;;;;;;;;;5030839;28;19921;-82
2023/12/14 01:36:16;;;;;;;;;;;;;;;;;;5030175;28;19925;-82
2023/12/14 01:38:41;;;;;;;;;;;;;;;;;;5030816;28;19917;-82
2023/12/14 01:41:07;;;;;;;;;;;;;;;;;;5030507;28;19951;-82
2023/12/14 01:43:32;;;;;;;;;;;;;;;;;;5030769;28;20326;-82
2023/12/14 01:45:57;;;;;;;;;;;;;;;;;;5029291;28;19921;-82
2023/12/14 01:48:22;;;;;;;;;;;;;;;;;;5034098;28;19921;-82
2023/12/14 01:50:47;;;;;;;;;;;;;;;;;;5041902;28;19917;-82
2023/12/14 01:53:12;;;;;;;;;;;;;;;;;;5037802;28;19917;-81
2023/12/14 01:55:37;;;;;;;;;;;;;;;;;;5039228;28;20474;-82
2023/12/14 01:58:02;;;;;;;;;;;;;;;;;;5043441;28;19921;-81
2023/12/14 02:00:27;;;;;;;;;;;;;;;;;;5052509;28;19916;-82
2023/12/14 02:02:53;;;;;;;;;;;;;;;;;;5054568;28;19963;-83
2023/12/14 02:05:18;;;;;;;;;;;;;;;;;;5046170;28;19927;-82
2023/12/14 02:07:43;;;;;;;;;;;;;;;;;;5044566;28;19921;-82
2023/12/14 02:10:08;;;;;;;;;;;;;;;;;;5043998;28;20283;-83
2023/12/14 02:12:34;;;;;;;;;;;;;;;;;;5036057;28;20063;-82
2023/12/14 02:14:59;;;;;;;;;;;;;;;;;;5044878;28;19921;-82
2023/12/14 02:17:24;;;;;;;;;;;;;;;;;;5040890;28;19975;-83
2023/12/14 02:19:49;;;;;;;;;;;;;;;;;;5036972;28;19955;-83
2023/12/14 02:22:14;;;;;;;;;;;;;;;;;;5037520;28;19998;-83
2023/12/14 02:24:39;;;;;;;;;;;;;;;;;;5036179;28;19921;-82
2023/12/14 02:27:04;;;;;;;;;;;;;;;;;;5043701;28;19966;-82
2023/12/14 02:29:29;;;;;;;;;;;;;;;;;;5035407;28;20000;-83
2023/12/14 02:31:54;;;;;;;;;;;;;;;;;;5033612;28;19917;-82
2023/12/14 02:34:20;;;;;;;;;;;;;;;;;;5034463;28;19929;-83
2023/12/14 02:36:45;;;;;;;;;;;;;;;;;;5035298;28;19928;-83
2023/12/14 02:39:10;;;;;;;;;;;;;;;;;;5034638;28;20460;-83
2023/12/14 02:41:35;;;;;;;;;;;;;;;;;;5034602;28;20442;-82
2023/12/14 02:44:00;;;;;;;;;;;;;;;;;;5042805;28;20007;-83
2023/12/14 02:46:26;;;;;;;;;;;;;;;;;;5036748;28;19944;-81
2023/12/14 02:48:51;;;;;;;;;;;;;;;;;;5033548;28;19960;-82
2023/12/14 02:51:16;;;;;;;;;;;;;;;;;;5034564;28;19941;-83
2023/12/14 02:53:41;;;;;;;;;;;;;;;;;;5033508;28;19917;-83
2023/12/14 02:56:06;;;;;;;;;;;;;;;;;;5021540;28;19925;-81
2023/12/14 02:58:31;;;;;;;;;;;;;;;;;;5028496;28;20396;-83
2023/12/14 03:00:56;;;;;;;;;;;;;;;;;;5035579;28;19996;-81
2023/12/14 03:03:21;;;;;;;;;;;;;;;;;;5037373;28;19940;-81
2023/12/14 03:05:48;;;;;;;;;;;;;;;;;;5040291;28;19932;-81
2023/12/14 03:08:13;;;;;;;;;;;;;;;;;;5030136;28;20008;-81
2023/12/14 03:10:38;;;;;;;;;;;;;;;;;;5033903;28;19971;-82
2023/12/14 03:13:03;;;;;;;;;;;;;;;;;;5036147;28;19921;-82
2023/12/14 03:15:28;;;;;;;;;;;;;;;;;;5050110;28;19920;-81
2023/12/14 03:17:53;;;;;;;;;;;;;;;;;;5048557;28;19928;-82
2023/12/14 03:20:19;;;;;;;;;;;;;;;;;;5049365;28;19921;-81
2023/12/14 03:22:44;;;;;;;;;;;;;;;;;;5038951;28;19925;-81
2023/12/14 03:25:09;;;;;;;;;;;;;;;;;;5037056;28;19978;-81
2023/12/14 03:27:34;;;;;;;;;;;;;;;;;;5042799;28;19917;-81
2023/12/14 03:30:00;;;;;;;;;;;;;;;;;;5044720;28;19924;-82
2023/12/14 03:32:25;;;;;;;;;;;;;;;;;;5044369;28;20375;-83
2023/12/14 03:34:50;;;;;;;;;;;;;;;;;;5045050;28;19921;-81
2023/12/14 03:37:15;;;;;;;;;;;;;;;;;;5042196;28;19932;-81
2023/12/14 03:39:40;;;;;;;;;;;;;;;;;;5044578;28;19951;-81
2023/12/14 03:42:05;;;;;;;;;;;;;;;;;;5032299;28;19944;-82
2023/12/14 03:44:30;;;;;;;;;;;;;;;;;;5036744;28;19917;-81
2023/12/14 03:46:57;;;;;;;;;;;;;;;;;;5038245;28;19924;-82
2023/12/14 03:49:22;;;;;;;;;;;;;;;;;;5040256;28;19928;-82
2023/12/14 03:51:48;;;;;;;;;;;;;;;;;;5031680;28;19925;-82
2023/12/14 03:54:13;;;;;;;;;;;;;;;;;;5040527;28;19923;-81
2023/12/14 03:56:38;;;;;;;;;;;;;;;;;;5031008;28;19921;-81
2023/12/14 03:59:03;;;;;;;;;;;;;;;;;;5039252;28;19940;-82
2023/12/14 04:01:28;;;;;;;;;;;;;;;;;;5028913;28;19921;-82
2023/12/14 04:03:53;;;;;;;;;;;;;;;;;;5036893;28;19972;-81
2023/12/14 04:06:18;;;;;;;;;;;;;;;;;;5025766;28;20443;-81
2023/12/14 04:08:43;;;;;;;;;;;;;;;;;;5028646;28;19921;-81
2023/12/14 04:11:08;;;;;;;;;;;;;;;;;;5028962;28;19967;-81
2023/12/14 04:13:34;;;;;;;;;;;;;;;;;;5034509;28;20302;-82
2023/12/14 04:16:00;;;;;;;;;;;;;;;;;;5052610;28;19967;-83
2023/12/14 04:18:25;;;;;;;;;;;;;;;;;;5034615;28;19929;-82
2023/12/14 04:20:50;;;;;;;;;;;;;;;;;;5038786;28;20015;-81
2023/12/14 04:23:15;;;;;;;;;;;;;;;;;;5030590;28;19962;-82
2023/12/14 04:25:40;;;;;;;;;;;;;;;;;;5031362;28;20363;-81
2023/12/14 04:28:06;;;;;;;;;;;;;;;;;;5030099;28;19917;-82
2023/12/14 04:30:31;;;;;;;;;;;;;;;;;;5032579;28;19925;-82
2023/12/14 04:32:56;;;;;;;;;;;;;;;;;;5030440;28;19925;-82
2023/12/14 04:35:22;;;;;;;;;;;;;;;;;;5030632;28;19984;-81
2023/12/14 04:37:47;;;;;;;;;;;;;;;;;;5030550;28;19960;-82
2023/12/14 04:40:12;;;;;;;;;;;;;;;;;;5042365;28;19928;-81
2023/12/14 04:42:37;;;;;;;;;;;;;;;;;;5038574;28;19995;-82
2023/12/14 04:45:02;;;;;;;;;;;;;;;;;;5052862;28;19939;-84
2023/12/14 04:47:28;;;;;;;;;;;;;;;;;;5045099;28;19945;-82
2023/12/14 04:49:53;;;;;;;;;;;;;;;;;;5042700;28;19920;-83
2023/12/14 04:52:18;;;;;;;;;;;;;;;;;;5029705;28;19928;-82
2023/12/14 04:54:43;;;;;;;;;;;;;;;;;;5031431;28;19990;-82
2023/12/14 04:57:09;;;;;;;;;;;;;;;;;;5024762;28;20311;-81
2023/12/14 04:59:34;;;;;;;;;;;;;;;;;;5042252;28;19921;-81
2023/12/14 05:01:59;;;;;;;;;;;;;;;;;;5037592;28;19959;-80
2023/12/14 05:04:24;;;;;;;;;;;;;;;;;;5040140;28;19925;-82
2023/12/14 05:06:49;;;;;;;;;;;;;;;;;;5039690;28;19917;-83
2023/12/14 05:09:15;;;;;;;;;;;;;;;;;;5044319;28;20495;-82
2023/12/14 05:11:40;;;;;;;;;;;;;;;;;;5037166;28;20003;-83
2023/12/14 05:14:05;;;;;;;;;;;;;;;;;;5028995;28;19967;-83
2023/12/14 05:16:30;;;;;;;;;;;;;;;;;;5030925;28;19944;-82
2023/12/14 05:18:56;;;;;;;;;;;;;;;;;;5031608;28;20536;-81
2023/12/14 05:21:22;;;;;;;;;;;;;;;;;;5030442;28;19917;-83
2023/12/14 05:23:47;;;;;;;;;;;;;;;;;;5023789;28;19923;-82
2023/12/14 05:26:12;;;;;;;;;;;;;;;;;;5034753;28;19917;-82
2023/12/14 05:28:37;;;;;;;;;;;;;;;;;;5035618;28;19928;-82
2023/12/14 05:31:02;;;;;;;;;;;;;;;;;;5035826;28;19924;-83
2023/12/14 05:33:28;;;;;;;;;;;;;;;;;;5034490;28;19921;-83
2023/12/14 05:35:53;;;;;;;;;;;;;;;;;;5036154;28;19921;-82
2023/12/14 05:38:18;;;;;;;;;;;;;;;;;;5041360;28;20011;-82
2023/12/14 05:40:44;;;;;;;;;;;;;;;;;;5043067;28;19967;-82
2023/12/14 05:43:09;;;;;;;;;;;;;;;;;;5040168;28;19929;-80
2023/12/14 05:45:34;;;;;;;;;;;;;;;;;;5043896;28;19917;-81
2023/12/14 05:47:59;;;;;;;;;;;;;;;;;;5033313;28;19924;-82
2023/12/14 05:50:25;;;;;;;;;;;;;;;;;;5037067;28;19932;-82
2023/12/14 05:52:50;;;;;;;;;;;;;;;;;;5039849;28;20370;-82
2023/12/14 05:55:21;;;;;;;;;;;;;;;;;;5039815;28;19917;-82
2023/12/14 05:57:47;;;;;;;;;;;;;;;;;;5029424;28;19971;-81
2023/12/14 06:00:12;;;;;;;;;;;;;;;;;;5034110;28;20011;-82
2023/12/14 06:02:38;;;;;;;;;;;;;;;;;;5034818;28;19964;-82
2023/12/14 06:05:03;;;;;;;;;;;;;;;;;;5043939;28;19975;-82
2023/12/14 06:07:28;;;;;;;;;;;;;;;;;;5036001;28;20322;-82
2023/12/14 06:09:53;;;;;;;;;;;;;;;;;;5035500;28;19917;-83
2023/12/14 06:12:18;;;;;;;;;;;;;;;;;;5036397;28;19925;-81
2023/12/14 06:14:44;;;;;;;;;;;;;;;;;;5038489;28;20020;-82
2023/12/14 06:17:10;;;;;;;;;;;;;;;;;;5035295;28;19952;-82
2023/12/14 06:19:35;;;;;;;;;;;;;;;;;;5045390;28;19999;-82
2023/12/14 06:22:00;;;;;;;;;;;;;;;;;;5039586;28;20438;-82
2023/12/14 06:24:25;;;;;;;;;;;;;;;;;;5035457;28;19947;-81
2023/12/14 06:26:50;;;;;;;;;;;;;;;;;;5040722;28;19920;-83
2023/12/14 06:29:15;;;;;;;;;;;;;;;;;;5033613;28;19921;-82
2023/12/14 06:31:40;;;;;;;;;;;;;;;;;;5035660;28;19928;-82
2023/12/14 06:34:05;;;;;;;;;;;;;;;;;;5050092;28;19929;-82
2023/12/14 06:36:30;;;;;;;;;;;;;;;;;;5031442;28;19925;-81
2023/12/14 06:38:56;;;;;;;;;;;;;;;;;;5037322;28;20354;-81
2023/12/14 06:41:21;;;;;;;;;;;;;;;;;;5040745;28;19921;-81
2023/12/14 06:43:46;;;;;;;;;;;;;;;;;;5037336;28;20313;-82
2023/12/14 06:46:11;;;;;;;;;;;;;;;;;;5032737;28;19917;-82
2023/12/14 06:48:36;;;;;;;;;;;;;;;;;;5031974;28;19921;-82
2023/12/14 06:51:01;;;;;;;;;;;;;;;;;;5033388;28;19940;-82
2023/12/14 06:53:26;;;;;;;;;;;;;;;;;;5032433;28;19979;-82
2023/12/14 06:55:51;;;;;;;;;;;;;;;;;;5037424;28;19952;-81
2023/12/14 06:58:16;;;;;;;;;;;;;;;;;;5041223;28;19948;-82
2023/12/14 07:00:41;;;;;;;;;;;;;;;;;;5033187;28;19925;-81
2023/12/14 07:03:07;;;;;;;;;;;;;;;;;;5034856;28;19920;-81
2023/12/14 07:05:32;;;;;;;;;;;;;;;;;;5041835;28;19921;-81
2023/12/14 07:07:58;;;;;;;;;;;;;;;;;;5032205;28;20294;-81
2023/12/14 07:10:23;;;;;;;;;;;;;;;;;;5032077;28;20379;-82
2023/12/14 07:12:48;;;;;;;;;;;;;;;;;;5033293;28;20359;-83
2023/12/14 07:15:13;;;;;;;;;;;;;;;;;;5043205;28;20007;-82
2023/12/14 07:17:39;;;;;;;;;;;;;;;;;;5033422;28;19921;-83
2023/12/14 07:20:06;;;;;;;;;;;;;;;;;;5033620;28;20028;-81
2023/12/14 07:22:31;;;;;;;;;;;;;;;;;;5033136;28;19927;-82
2023/12/14 07:24:56;;;;;;;;;;;;;;;;;;5033168;28;19921;-81
2023/12/14 07:27:21;;;;;;;;;;;;;;;;;;5023541;28;19935;-83
2023/12/14 07:29:46;;;;;;;;;;;;;;;;;;5029325;28;19918;-81
2023/12/14 07:32:12;;;;;;;;;;;;;;;;;;5030807;28;19924;-83
2023/12/14 07:34:37;;;;;;;;;;;;;;;;;;5041156;28;19928;-82
2023/12/14 07:37:02;;;;;;;;;;;;;;;;;;5032924;28;20382;-82
2023/12/14 07:39:27;;;;;;;;;;;;;;;;;;5038913;28;19987;-82
2023/12/14 07:41:52;;;;;;;;;;;;;;;;;;5035402;28;19921;-82
2023/12/14 07:44:17;;;;;;;;;;;;;;;;;;5041079;28;20046;-82
2023/12/14 07:46:43;;;;;;;;;;;;;;;;;;5031899;28;20051;-82
2023/12/14 07:49:08;;;;;;;;;;;;;;;;;;5042220;28;19925;-83
2023/12/14 07:51:33;;;;;;;;;;;;;;;;;;5041739;28;19921;-82
2023/12/14 07:53:58;;;;;;;;;;;;;;;;;;5031133;28;20367;-81
2023/12/14 07:56:27;;;;;;;;;;;;;;;;;;5028705;28;19925;-83
2023/12/14 07:58:52;;;;;;;;;;;;;;;;;;5029325;28;20383;-82
2023/12/14 08:01:17;;;;;;;;;;;;;;;;;;5032717;28;19936;-82
2023/12/14 08:03:42;;;;;;;;;;;;;;;;;;5032478;28;19920;-83
2023/12/14 08:06:07;;;;;;;;;;;;;;;;;;5028937;28;20087;-81
2023/12/14 08:08:32;;;;;;;;;;;;;;;;;;5026324;28;19927;-82
2023/12/14 08:10:57;;;;;;;;;;;;;;;;;;5024296;28;20396;-81
2023/12/14 08:13:22;;;;;;;;;;;;;;;;;;5030959;28;20032;-82
2023/12/14 08:15:48;;;;;;;;;;;;;;;;;;5029895;28;20020;-82
2023/12/14 08:18:13;;;;;;;;;;;;;;;;;;5030388;28;19924;-80
2023/12/14 08:20:38;;;;;;;;;;;;;;;;;;5034217;28;19921;-81
2023/12/14 08:23:03;;;;;;;;;;;;;;;;;;5024040;28;20355;-81
2023/12/14 08:25:28;;;;;;;;;;;;;;;;;;5029169;28;19925;-82
2023/12/14 08:27:53;;;;;;;;;;;;;;;;;;5033166;28;19928;-82
2023/12/14 08:30:18;;;;;;;;;;;;;;;;;;5023336;28;19979;-82
2023/12/14 08:32:44;;;;;;;;;;;;;;;;;;5022085;28;19931;-81
2023/12/14 08:35:09;;;;;;;;;;;;;;;;;;5030433;28;20218;-82
2023/12/14 08:37:34;;;;;;;;;;;;;;;;;;5034225;28;20382;-81
2023/12/14 08:39:59;;;;;;;;;;;;;;;;;;5030696;28;20444;-82
2023/12/14 08:42:24;;;;;;;;;;;;;;;;;;5021229;28;19921;-82
2023/12/14 08:44:49;;;;;;;;;;;;;;;;;;5031508;28;20400;-81
2023/12/14 08:47:14;;;;;;;;;;;;;;;;;;5036488;28;19925;-82
2023/12/14 08:49:39;;;;;;;;;;;;;;;;;;5035313;28;19944;-82
2023/12/14 08:52:04;;;;;;;;;;;;;;;;;;5030347;28;19928;-82
2023/12/14 08:54:29;;;;;;;;;;;;;;;;;;5035807;28;20322;-82
2023/12/14 08:56:55;;;;;;;;;;;;;;;;;;5029868;28;19972;-81
2023/12/14 08:59:20;;;;;;;;;;;;;;;;;;5031845;28;19932;-81
2023/12/14 09:01:45;;;;;;;;;;;;;;;;;;5034986;28;19925;-81
2023/12/14 09:04:10;;;;;;;;;;;;;;;;;;5040658;28;19925;-81
2023/12/14 09:06:35;;;;;;;;;;;;;;;;;;5045909;28;19928;-81
2023/12/14 09:09:00;;;;;;;;;;;;;;;;;;5043897;28;19921;-81
2023/12/14 09:11:25;;;;;;;;;;;;;;;;;;5037711;28;19921;-81
2023/12/14 09:13:50;;;;;;;;;;;;;;;;;;5030705;28;21057;-82
2023/12/14 09:16:15;;;;;;;;;;;;;;;;;;5024422;28;20302;-81
2023/12/14 09:18:41;;;;;;;;;;;;;;;;;;5033264;28;20015;-82
2023/12/14 09:21:06;;;;;;;;;;;;;;;;;;5026972;28;19927;-81
2023/12/14 09:23:31;;;;;;;;;;;;;;;;;;5033216;28;19917;-82
2023/12/14 09:25:56;;;;;;;;;;;;;;;;;;5031068;28;19971;-81
2023/12/14 09:28:21;;;;;;;;;;;;;;;;;;5024953;28;19936;-81
2023/12/14 09:30:46;;;;;;;;;;;;;;;;;;5037182;28;20375;-81
2023/12/14 09:33:11;;;;;;;;;;;;;;;;;;5037503;28;19921;-82
2023/12/14 09:35:36;;;;;;;;;;;;;;;;;;5033272;28;19928;-82
2023/12/14 09:38:01;;;;;;;;;;;;;;;;;;5029453;28;19933;-82
2023/12/14 09:40:27;;;;;;;;;;;;;;;;;;5027819;28;19963;-82
2023/12/14 09:42:52;;;;;;;;;;;;;;;;;;5024051;28;20572;-82
2023/12/14 09:45:17;;;;;;;;;;;;;;;;;;5031038;28;19929;-82
2023/12/14 09:47:42;;;;;;;;;;;;;;;;;;5033362;28;19943;-81
2023/12/14 09:50:07;;;;;;;;;;;;;;;;;;5025207;28;20145;-82
2023/12/14 09:52:33;;;;;;;;;;;;;;;;;;5031851;28;19925;-81
2023/12/14 09:54:58;;;;;;;;;;;;;;;;;;5030934;28;19925;-82
2023/12/14 09:57:25;;;;;;;;;;;;;;;;;;5032277;28;19933;-82
2023/12/14 09:59:50;;;;;;;;;;;;;;;;;;5027588;28;19928;-82
2023/12/14 10:02:15;;;;;;;;;;;;;;;;;;5028129;28;19922;-82
2023/12/14 10:04:41;;;;;;;;;;;;;;;;;;5038088;28;19950;-82
2023/12/14 10:07:07;;;;;;;;;;;;;;;;;;5041383;28;19921;-82
2023/12/14 10:09:32;;;;;;;;;;;;;;;;;;5031710;28;19929;-82
2023/12/14 10:11:58;;;;;;;;;;;;;;;;;;5039730;28;19920;-82
2023/12/14 10:14:24;;;;;;;;;;;;;;;;;;5045594;28;19928;-82
2023/12/14 10:16:49;;;;;;;;;;;;;;;;;;5042798;28;19955;-82
2023/12/14 10:19:14;;;;;;;;;;;;;;;;;;5034567;28;20368;-82
2023/12/14 10:21:40;;;;;;;;;;;;;;;;;;5035460;28;19921;-82
2023/12/14 10:24:06;;;;;;;;;;;;;;;;;;5038882;28;19921;-82
2023/12/14 10:26:31;;;;;;;;;;;;;;;;;;5035541;28;19977;-82
2023/12/14 10:28:56;;;;;;;;;;;;;;;;;;5035793;28;19920;-82
2023/12/14 10:31:21;;;;;;;;;;;;;;;;;;5023587;28;19929;-82
2023/12/14 10:33:46;;;;;;;;;;;;;;;;;;5028779;28;19921;-82
2023/12/14 10:36:12;;;;;;;;;;;;;;;;;;5038366;28;20538;-82
2023/12/14 10:38:38;;;;;;;;;;;;;;;;;;5029470;28;19921;-82
2023/12/14 10:41:07;;;;;;;;;;;;;;;;;;5031246;28;19921;-82
2023/12/14 10:43:33;;;;;;;;;;;;;;;;;;5032381;28;20044;-82
2023/12/14 10:45:58;;;;;;;;;;;;;;;;;;5031103;28;19933;-83
2023/12/14 10:48:23;;;;;;;;;;;;;;;;;;5040938;28;19974;-83
2023/12/14 10:50:48;;;;;;;;;;;;;;;;;;5032987;28;20379;-82
2023/12/14 10:53:13;;;;;;;;;;;;;;;;;;5027853;28;19921;-82
2023/12/14 10:55:38;;;;;;;;;;;;;;;;;;5034351;28;19921;-83
2023/12/14 10:58:04;;;;;;;;;;;;;;;;;;5041877;28;20017;-82
2023/12/14 11:00:29;;;;;;;;;;;;;;;;;;5038600;28;20086;-82
2023/12/14 11:02:54;;;;;;;;;;;;;;;;;;5030237;28;20445;-82
2023/12/14 11:05:26;;;;;;;;;;;;;;;;;;5030689;28;19928;-82
2023/12/14 11:07:52;;;;;;;;;;;;;;;;;;5035500;28;19925;-82
2023/12/14 11:10:18;;;;;;;;;;;;;;;;;;5035710;28;19986;-82
2023/12/14 11:12:43;;;;;;;;;;;;;;;;;;5037290;28;20008;-82
2023/12/14 11:15:10;;;;;;;;;;;;;;;;;;5032463;28;19925;-82
2023/12/14 11:17:35;;;;;;;;;;;;;;;;;;5033885;28;19925;-82
2023/12/14 11:20:00;;;;;;;;;;;;;;;;;;5031410;28;19921;-82
2023/12/14 11:22:27;;;;;;;;;;;;;;;;;;5031374;28;19921;-82
2023/12/14 11:24:53;;;;;;;;;;;;;;;;;;5034982;28;19929;-82
2023/12/14 11:27:21;;;;;;;;;;;;;;;;;;5037972;28;20693;-82
2023/12/14 11:29:46;;;;;;;;;;;;;;;;;;5027828;28;19921;-82
2023/12/14 11:32:12;;;;;;;;;;;;;;;;;;5029106;28;19925;-81
2023/12/14 11:34:37;;;;;;;;;;;;;;;;;;5027763;28;19921;-82
2023/12/14 11:37:02;;;;;;;;;;;;;;;;;;5027227;28;19925;-82
2023/12/14 11:39:28;;;;;;;;;;;;;;;;;;5031251;28;20012;-82
2023/12/14 11:41:53;;;;;;;;;;;;;;;;;;5025631;28;19951;-81
2023/12/14 11:44:18;;;;;;;;;;;;;;;;;;5019498;28;20329;-82
2023/12/14 11:46:44;;;;;;;;;;;;;;;;;;5043185;28;19924;-82
2023/12/14 11:49:09;;;;;;;;;;;;;;;;;;5025936;28;19925;-82
2023/12/14 11:51:34;;;;;;;;;;;;;;;;;;5026297;28;19927;-82
2023/12/14 11:53:59;;;;;;;;;;;;;;;;;;5027253;28;19921;-82
2023/12/14 11:56:27;;;;;;;;;;;;;;;;;;5024459;28;19988;-82
2023/12/14 11:58:55;;;;;;;;;;;;;;;;;;5026174;28;19921;-82
2023/12/14 12:01:25;;;;;;;;;;;;;;;;;;5027377;28;19921;-82
2023/12/14 12:03:50;;;;;;;;;;;;;;;;;;5035892;28;19921;-82
2023/12/14 12:06:15;;;;;;;;;;;;;;;;;;5031218;28;19943;-82
2023/12/14 12:08:40;;;;;;;;;;;;;;;;;;5034308;28;19925;-82
2023/12/14 12:11:05;;;;;;;;;;;;;;;;;;5026329;28;20006;-82
2023/12/14 12:13:30;;;;;;;;;;;;;;;;;;5030209;28;20000;-82
2023/12/14 12:15:56;;;;;;;;;;;;;;;;;;5036671;28;19929;-82
2023/12/14 12:18:21;;;;;;;;;;;;;;;;;;5033718;28;20306;-82
2023/12/14 12:20:46;;;;;;;;;;;;;;;;;;5041673;28;20548;-83
2023/12/14 12:23:11;;;;;;;;;;;;;;;;;;5042663;28;19931;-83
2023/12/14 12:25:36;;;;;;;;;;;;;;;;;;5028350;28;19921;-82
2023/12/14 12:28:02;;;;;;;;;;;;;;;;;;5033664;28;20306;-83
2023/12/14 12:30:27;;;;;;;;;;;;;;;;;;5033869;28;20048;-82
2023/12/14 12:32:52;;;;;;;;;;;;;;;;;;5036806;28;19931;-82
2023/12/14 12:35:17;;;;;;;;;;;;;;;;;;5035649;28;19925;-81
2023/12/14 12:37:43;;;;;;;;;;;;;;;;;;5045833;28;19964;-81
2023/12/14 12:40:08;;;;;;;;;;;;;;;;;;5040378;28;20420;-83
2023/12/14 12:42:33;;;;;;;;;;;;;;;;;;5037363;28;19971;-83
2023/12/14 12:44:58;;;;;;;;;;;;;;;;;;5037488;28;19925;-82
2023/12/14 12:47:23;;;;;;;;;;;;;;;;;;5036300;28;19921;-82
2023/12/14 12:49:49;;;;;;;;;;;;;;;;;;5048601;28;19921;-82
2023/12/14 12:52:14;;;;;;;;;;;;;;;;;;5036910;28;19963;-81
2023/12/14 12:54:39;;;;;;;;;;;;;;;;;;5047872;28;19921;-81
2023/12/14 12:57:05;;;;;;;;;;;;;;;;;;5040958;28;19971;-82
2023/12/14 12:59:30;;;;;;;;;;;;;;;;;;5038732;28;19928;-84
2023/12/14 13:01:55;;;;;;;;;;;;;;;;;;5039133;28;19931;-82
2023/12/14 13:04:20;;;;;;;;;;;;;;;;;;5031060;28;19925;-83
2023/12/14 13:06:45;;;;;;;;;;;;;;;;;;5038184;28;19967;-81
2023/12/14 13:09:10;;;;;;;;;;;;;;;;;;5032905;28;19921;-82
2023/12/14 13:11:35;;;;;;;;;;;;;;;;;;5025692;28;19929;-81
2023/12/14 13:14:04;;;;;;;;;;;;;;;;;;5034556;28;19920;-82
2023/12/14 13:16:29;;;;;;;;;;;;;;;;;;5032911;28;20020;-81
2023/12/14 13:18:54;;;;;;;;;;;;;;;;;;5033437;28;20008;-81
2023/12/14 13:21:22;;;;;;;;;;;;;;;;;;5030056;28;19929;-82
2023/12/14 13:23:47;;;;;;;;;;;;;;;;;;5026803;28;20418;-82
2023/12/14 13:26:12;;;;;;;;;;;;;;;;;;5013619;28;20008;-82
2023/12/14 13:28:37;;;;;;;;;;;;;;;;;;5016286;28;19921;-82
2023/12/14 13:31:02;;;;;;;;;;;;;;;;;;5016066;28;19951;-81
2023/12/14 13:33:27;;;;;;;;;;;;;;;;;;5012956;28;19922;-82
2023/12/14 13:35:52;;;;;;;;;;;;;;;;;;5016061;28;19929;-82
2023/12/14 13:38:18;;;;;;;;;;;;;;;;;;5007085;28;19925;-82
2023/12/14 13:40:43;;;;;;;;;;;;;;;;;;5008754;28;20388;-82
2023/12/14 13:43:10;;;;;;;;;;;;;;;;;;5015271;28;19921;-82
2023/12/14 13:45:35;;;;;;;;;;;;;;;;;;5017285;28;19937;-82
2023/12/14 13:48:00;;;;;;;;;;;;;;;;;;5016064;28;19917;-82
2023/12/14 13:50:27;;;;;;;;;;;;;;;;;;5012171;28;19952;-82
2023/12/14 13:52:52;;;;;;;;;;;;;;;;;;5034886;28;19922;-83
2023/12/14 13:55:18;;;;;;;;;;;;;;;;;;5018578;28;20403;-83
2023/12/14 13:57:43;;;;;;;;;;;;;;;;;;5025416;28;19925;-83
2023/12/14 14:00:08;;;;;;;;;;;;;;;;;;5019757;28;19925;-81
2023/12/14 14:02:34;;;;;;;;;;;;;;;;;;5022900;28;20422;-83
2023/12/14 14:04:59;;;;;;;;;;;;;;;;;;5016398;28;20538;-82
2023/12/14 14:07:24;;;;;;;;;;;;;;;;;;5015165;28;19921;-83
2023/12/14 14:09:49;;;;;;;;;;;;;;;;;;5007359;28;19930;-82
2023/12/14 14:12:14;;;;;;;;;;;;;;;;;;5013201;28;19921;-82
2023/12/14 14:14:39;;;;;;;;;;;;;;;;;;5013389;28;19925;-81
2023/12/14 14:17:06;;;;;;;;;;;;;;;;;;5021891;28;19933;-82
2023/12/14 14:19:31;;;;;;;;;;;;;;;;;;5017198;28;19921;-82
2023/12/14 14:21:56;;;;;;;;;;;;;;;;;;5013483;28;19923;-82
2023/12/14 14:24:21;;;;;;;;;;;;;;;;;;5014282;28;19952;-82
2023/12/14 14:26:46;;;;;;;;;;;;;;;;;;5016924;28;19922;-82
2023/12/14 14:29:11;;;;;;;;;;;;;;;;;;5012304;28;19928;-82
2023/12/14 14:31:36;;;;;;;;;;;;;;;;;;5009839;28;19921;-82
2023/12/14 14:34:01;;;;;;;;;;;;;;;;;;5013735;28;19936;-82
2023/12/14 14:36:27;;;;;;;;;;;;;;;;;;5014030;28;19925;-82
2023/12/14 14:38:54;;;;;;;;;;;;;;;;;;5012726;28;19921;-82
2023/12/14 14:41:19;;;;;;;;;;;;;;;;;;5011542;28;19933;-81
2023/12/14 14:43:44;;;;;;;;;;;;;;;;;;5012567;28;19968;-82
2023/12/14 14:46:10;;;;;;;;;;;;;;;;;;5023041;28;19997;-83
2023/12/14 14:48:35;;;;;;;;;;;;;;;;;;5021252;28;19921;-82
2023/12/14 14:51:00;;;;;;;;;;;;;;;;;;5022523;28;19929;-82
2023/12/14 14:53:25;;;;;;;;;;;;;;;;;;5018937;28;19925;-82
2023/12/14 14:55:55;;;;;;;;;;;;;;;;;;5022091;28;20289;-82
2023/12/14 14:58:20;;;;;;;;;;;;;;;;;;5020596;28;19922;-82
2023/12/14 15:00:45;;;;;;;;;;;;;;;;;;5022412;28;19922;-81
2023/12/14 15:03:11;;;;;;;;;;;;;;;;;;5020473;28;19929;-81
2023/12/14 15:05:36;;;;;;;;;;;;;;;;;;5020528;28;19922;-80
2023/12/14 15:08:03;;;;;;;;;;;;;;;;;;5022430;28;19961;-81
2023/12/14 15:10:28;;;;;;;;;;;;;;;;;;5022252;28;19949;-81
2023/12/14 15:12:53;;;;;;;;;;;;;;;;;;5021523;28;19917;-84
2023/12/14 15:15:18;;;;;;;;;;;;;;;;;;5031334;28;19933;-81
2023/12/14 15:17:43;;;;;;;;;;;;;;;;;;5021982;28;19921;-84
2023/12/14 15:20:09;;;;;;;;;;;;;;;;;;5013151;28;19932;-82
2023/12/14 15:22:34;;;;;;;;;;;;;;;;;;5017938;28;19928;-82
2023/12/14 15:24:59;;;;;;;;;;;;;;;;;;5025076;28;19928;-82
2023/12/14 15:27:25;;;;;;;;;;;;;;;;;;5029341;28;20678;-82
2023/12/14 15:29:50;;;;;;;;;;;;;;;;;;5020447;28;19922;-82
2023/12/14 15:32:15;;;;;;;;;;;;;;;;;;5027540;28;19929;-82
2023/12/14 15:34:40;;;;;;;;;;;;;;;;;;5024415;28;20390;-83
2023/12/14 15:37:05;;;;;;;;;;;;;;;;;;5026170;28;19925;-83
2023/12/14 15:39:30;;;;;;;;;;;;;;;;;;5025022;28;19921;-81
2023/12/14 15:41:55;;;;;;;;;;;;;;;;;;5024017;28;19927;-83
2023/12/14 15:44:21;;;;;;;;;;;;;;;;;;5031793;28;20004;-84
2023/12/14 15:46:46;;;;;;;;;;;;;;;;;;5046570;28;19921;-84
2023/12/14 15:49:11;;;;;;;;;;;;;;;;;;5047594;28;20402;-83
2023/12/14 15:51:37;;;;;;;;;;;;;;;;;;5047793;28;19928;-83
2023/12/14 15:54:02;;;;;;;;;;;;;;;;;;5051328;28;19952;-83
2023/12/14 15:56:28;;;;;;;;;;;;;;;;;;5050486;28;19947;-82
2023/12/14 15:58:54;;;;;;;;;;;;;;;;;;5047510;28;19928;-82
2023/12/14 16:01:20;;;;;;;;;;;;;;;;;;5045232;28;19921;-83
2023/12/14 16:03:46;;;;;;;;;;;;;;;;;;5043087;28;19923;-82
2023/12/14 16:06:11;;;;;;;;;;;;;;;;;;5047220;28;19975;-85
2023/12/14 16:08:36;;;;;;;;;;;;;;;;;;5048172;28;20305;-83
2023/12/14 16:11:02;;;;;;;;;;;;;;;;;;5039235;28;19921;-84
2023/12/14 16:13:29;;;;;;;;;;;;;;;;;;5040493;28;19955;-83
2023/12/14 16:15:54;;;;;;;;;;;;;;;;;;5045220;28;19921;-83
2023/12/14 16:18:19;;;;;;;;;;;;;;;;;;5042587;28;19956;-83
2023/12/14 16:20:46;;;;;;;;;;;;;;;;;;5051402;28;19924;-82
2023/12/14 16:23:11;;;;;;;;;;;;;;;;;;5047923;28;19932;-85
2023/12/14 16:25:36;;;;;;;;;;;;;;;;;;5045031;28;20087;-85
2023/12/14 16:28:02;;;;;;;;;;;;;;;;;;5045732;28;19925;-84
2023/12/14 16:30:28;;;;;;;;;;;;;;;;;;5053782;28;19925;-85
2023/12/14 16:32:55;;;;;;;;;;;;;;;;;;5050483;28;19921;-85